sensor_id;sensor_type;location;lat;lon;timestamp;P1;durP1;ratioP1;P2;durP2;ratioP2
66485;SDS011;53303;47.476;8.084;2023-07-29T00:00:00;5.85;;;1.65;;
66485;SDS011;53303;47.476;8.084;2023-07-29T00:02:26;4.95;;;1.80;;
66485;SDS011;53303;47.476;8.084;2023-07-29T00:04:54;5.18;;;1.90;;
66485;SDS011;53303;47.476;8.084;2023-07-29T00:07:20;7.07;;;1.45;;
66485;SDS011;53303;47.476;8.084;2023-07-29T00:09:45;6.72;;;1.77;;
66485;SDS011;53303;47.476;8.084;2023-07-29T00:12:13;3.88;;;1.38;;
66485;SDS011;53303;47.476;8.084;2023-07-29T00:14:38;4.55;;;1.83;;
66485;SDS011;53303;47.476;8.084;2023-07-29T00:17:03;5.38;;;1.83;;
66485;SDS011;53303;47.476;8.084;2023-07-29T00:19:31;3.72;;;1.67;;
66485;SDS011;53303;47.476;8.084;2023-07-29T00:21:59;5.25;;;1.63;;
66485;SDS011;53303;47.476;8.084;2023-07-29T00:24:27;3.83;;;1.30;;
66485;SDS011;53303;47.476;8.084;2023-07-29T00:26:52;4.30;;;1.42;;
66485;SDS011;53303;47.476;8.084;2023-07-29T00:29:18;6.53;;;1.50;;
66485;SDS011;53303;47.476;8.084;2023-07-29T00:31:48;4.28;;;1.48;;
66485;SDS011;53303;47.476;8.084;2023-07-29T00:34:13;4.53;;;1.80;;
66485;SDS011;53303;47.476;8.084;2023-07-29T00:36:44;3.28;;;1.40;;
66485;SDS011;53303;47.476;8.084;2023-07-29T00:39:10;4.93;;;1.70;;
66485;SDS011;53303;47.476;8.084;2023-07-29T00:41:38;4.40;;;1.60;;
66485;SDS011;53303;47.476;8.084;2023-07-29T00:44:06;5.82;;;1.75;;
66485;SDS011;53303;47.476;8.084;2023-07-29T00:46:33;5.75;;;1.80;;
66485;SDS011;53303;47.476;8.084;2023-07-29T00:49:03;5.38;;;1.50;;
66485;SDS011;53303;47.476;8.084;2023-07-29T00:51:29;4.20;;;1.45;;
66485;SDS011;53303;47.476;8.084;2023-07-29T00:53:57;4.50;;;1.63;;
66485;SDS011;53303;47.476;8.084;2023-07-29T00:56:25;4.47;;;1.45;;
66485;SDS011;53303;47.476;8.084;2023-07-29T00:58:52;3.72;;;1.42;;
66485;SDS011;53303;47.476;8.084;2023-07-29T01:01:26;4.47;;;1.40;;
66485;SDS011;53303;47.476;8.084;2023-07-29T01:03:51;6.88;;;1.83;;
66485;SDS011;53303;47.476;8.084;2023-07-29T01:14:16;4.40;;;1.52;;
66485;SDS011;53303;47.476;8.084;2023-07-29T01:17:04;4.90;;;1.65;;
66485;SDS011;53303;47.476;8.084;2023-07-29T01:22:17;3.53;;;1.73;;
66485;SDS011;53303;47.476;8.084;2023-07-29T01:24:44;6.43;;;1.45;;
66485;SDS011;53303;47.476;8.084;2023-07-29T01:27:09;5.40;;;1.60;;
66485;SDS011;53303;47.476;8.084;2023-07-29T01:29:34;5.18;;;1.65;;
66485;SDS011;53303;47.476;8.084;2023-07-29T01:32:04;4.45;;;1.60;;
66485;SDS011;53303;47.476;8.084;2023-07-29T01:34:39;6.07;;;1.80;;
66485;SDS011;53303;47.476;8.084;2023-07-29T01:37:12;3.47;;;1.42;;
66485;SDS011;53303;47.476;8.084;2023-07-29T01:39:45;4.60;;;1.70;;
66485;SDS011;53303;47.476;8.084;2023-07-29T01:42:14;5.10;;;1.50;;
66485;SDS011;53303;47.476;8.084;2023-07-29T01:44:39;3.20;;;1.38;;
66485;SDS011;53303;47.476;8.084;2023-07-29T01:47:07;4.60;;;1.30;;
66485;SDS011;53303;47.476;8.084;2023-07-29T01:49:33;4.50;;;1.60;;
66485;SDS011;53303;47.476;8.084;2023-07-29T01:52:00;6.97;;;1.80;;
66485;SDS011;53303;47.476;8.084;2023-07-29T01:54:28;4.80;;;1.50;;
66485;SDS011;53303;47.476;8.084;2023-07-29T01:56:54;3.60;;;1.25;;
66485;SDS011;53303;47.476;8.084;2023-07-29T01:59:21;4.03;;;1.58;;
66485;SDS011;53303;47.476;8.084;2023-07-29T02:01:49;4.35;;;1.73;;
66485;SDS011;53303;47.476;8.084;2023-07-29T02:04:14;4.15;;;1.40;;
66485;SDS011;53303;47.476;8.084;2023-07-29T02:06:40;5.05;;;1.40;;
66485;SDS011;53303;47.476;8.084;2023-07-29T02:09:07;4.45;;;1.40;;
66485;SDS011;53303;47.476;8.084;2023-07-29T02:11:35;5.05;;;1.67;;
66485;SDS011;53303;47.476;8.084;2023-07-29T02:14:02;3.67;;;1.48;;
66485;SDS011;53303;47.476;8.084;2023-07-29T02:16:28;5.47;;;1.88;;
66485;SDS011;53303;47.476;8.084;2023-07-29T02:18:54;4.20;;;1.50;;
66485;SDS011;53303;47.476;8.084;2023-07-29T02:21:19;4.60;;;1.75;;
66485;SDS011;53303;47.476;8.084;2023-07-29T02:23:47;6.60;;;1.60;;
66485;SDS011;53303;47.476;8.084;2023-07-29T02:26:16;5.82;;;1.80;;
66485;SDS011;53303;47.476;8.084;2023-07-29T02:28:44;5.60;;;2.10;;
66485;SDS011;53303;47.476;8.084;2023-07-29T02:31:13;6.70;;;2.10;;
66485;SDS011;53303;47.476;8.084;2023-07-29T02:33:52;4.82;;;1.55;;
66485;SDS011;53303;47.476;8.084;2023-07-29T02:36:20;5.28;;;1.70;;
66485;SDS011;53303;47.476;8.084;2023-07-29T02:38:48;5.18;;;2.00;;
66485;SDS011;53303;47.476;8.084;2023-07-29T02:41:13;5.15;;;1.83;;
66485;SDS011;53303;47.476;8.084;2023-07-29T02:43:41;9.35;;;1.98;;
66485;SDS011;53303;47.476;8.084;2023-07-29T02:46:10;5.82;;;2.08;;
66485;SDS011;53303;47.476;8.084;2023-07-29T02:48:35;6.03;;;2.03;;
66485;SDS011;53303;47.476;8.084;2023-07-29T02:51:05;5.15;;;2.08;;
66485;SDS011;53303;47.476;8.084;2023-07-29T02:53:30;6.85;;;2.25;;
66485;SDS011;53303;47.476;8.084;2023-07-29T02:55:58;6.38;;;2.15;;
66485;SDS011;53303;47.476;8.084;2023-07-29T02:58:26;6.38;;;1.90;;
66485;SDS011;53303;47.476;8.084;2023-07-29T03:00:54;5.53;;;1.83;;
66485;SDS011;53303;47.476;8.084;2023-07-29T03:03:25;5.65;;;1.85;;
66485;SDS011;53303;47.476;8.084;2023-07-29T03:05:56;6.28;;;2.03;;
66485;SDS011;53303;47.476;8.084;2023-07-29T03:08:26;5.60;;;2.00;;
66485;SDS011;53303;47.476;8.084;2023-07-29T03:10:51;5.22;;;2.03;;
66485;SDS011;53303;47.476;8.084;2023-07-29T03:13:19;6.57;;;2.15;;
66485;SDS011;53303;47.476;8.084;2023-07-29T03:15:44;5.95;;;2.38;;
66485;SDS011;53303;47.476;8.084;2023-07-29T03:18:10;5.25;;;1.75;;
66485;SDS011;53303;47.476;8.084;2023-07-29T03:20:40;5.35;;;1.90;;
66485;SDS011;53303;47.476;8.084;2023-07-29T03:23:06;6.15;;;1.85;;
66485;SDS011;53303;47.476;8.084;2023-07-29T03:25:34;7.20;;;1.92;;
66485;SDS011;53303;47.476;8.084;2023-07-29T03:28:00;5.28;;;2.00;;
66485;SDS011;53303;47.476;8.084;2023-07-29T03:30:25;5.10;;;1.80;;
66485;SDS011;53303;47.476;8.084;2023-07-29T03:32:50;6.18;;;1.95;;
66485;SDS011;53303;47.476;8.084;2023-07-29T03:35:16;5.97;;;2.28;;
66485;SDS011;53303;47.476;8.084;2023-07-29T03:37:42;5.70;;;2.17;;
66485;SDS011;53303;47.476;8.084;2023-07-29T03:40:07;4.68;;;1.95;;
66485;SDS011;53303;47.476;8.084;2023-07-29T03:42:38;4.78;;;1.92;;
66485;SDS011;53303;47.476;8.084;2023-07-29T03:45:06;6.47;;;1.80;;
66485;SDS011;53303;47.476;8.084;2023-07-29T03:47:31;5.45;;;2.00;;
66485;SDS011;53303;47.476;8.084;2023-07-29T03:49:57;6.85;;;2.05;;
66485;SDS011;53303;47.476;8.084;2023-07-29T03:52:22;6.88;;;2.25;;
66485;SDS011;53303;47.476;8.084;2023-07-29T03:54:50;9.07;;;2.00;;
66485;SDS011;53303;47.476;8.084;2023-07-29T03:57:20;6.65;;;2.22;;
66485;SDS011;53303;47.476;8.084;2023-07-29T03:59:45;5.50;;;2.00;;
66485;SDS011;53303;47.476;8.084;2023-07-29T04:02:11;5.65;;;2.30;;
66485;SDS011;53303;47.476;8.084;2023-07-29T04:04:38;4.85;;;1.92;;
66485;SDS011;53303;47.476;8.084;2023-07-29T04:07:04;6.13;;;2.10;;
66485;SDS011;53303;47.476;8.084;2023-07-29T04:09:32;6.35;;;2.25;;
66485;SDS011;53303;47.476;8.084;2023-07-29T04:11:58;6.25;;;2.08;;
66485;SDS011;53303;47.476;8.084;2023-07-29T04:14:23;8.18;;;2.00;;
66485;SDS011;53303;47.476;8.084;2023-07-29T04:16:51;6.47;;;2.35;;
66485;SDS011;53303;47.476;8.084;2023-07-29T04:19:16;7.93;;;2.33;;
66485;SDS011;53303;47.476;8.084;2023-07-29T04:21:41;10.30;;;2.28;;
66485;SDS011;53303;47.476;8.084;2023-07-29T04:24:09;9.88;;;2.25;;
66485;SDS011;53303;47.476;8.084;2023-07-29T04:26:37;6.85;;;2.17;;
66485;SDS011;53303;47.476;8.084;2023-07-29T04:29:06;11.18;;;2.38;;
66485;SDS011;53303;47.476;8.084;2023-07-29T04:31:34;7.63;;;2.08;;
66485;SDS011;53303;47.476;8.084;2023-07-29T04:34:00;5.97;;;1.90;;
66485;SDS011;53303;47.476;8.084;2023-07-29T04:36:25;8.52;;;2.13;;
66485;SDS011;53303;47.476;8.084;2023-07-29T04:38:53;6.72;;;2.15;;
66485;SDS011;53303;47.476;8.084;2023-07-29T04:41:19;6.85;;;2.25;;
66485;SDS011;53303;47.476;8.084;2023-07-29T04:43:48;6.18;;;2.40;;
66485;SDS011;53303;47.476;8.084;2023-07-29T04:46:14;8.98;;;2.33;;
66485;SDS011;53303;47.476;8.084;2023-07-29T04:48:43;5.47;;;2.20;;
66485;SDS011;53303;47.476;8.084;2023-07-29T04:51:08;8.68;;;2.60;;
66485;SDS011;53303;47.476;8.084;2023-07-29T04:53:33;6.95;;;2.53;;
66485;SDS011;53303;47.476;8.084;2023-07-29T04:56:04;9.02;;;2.40;;
66485;SDS011;53303;47.476;8.084;2023-07-29T04:58:34;6.15;;;2.20;;
66485;SDS011;53303;47.476;8.084;2023-07-29T05:01:05;5.70;;;2.30;;
66485;SDS011;53303;47.476;8.084;2023-07-29T05:03:33;7.95;;;2.05;;
66485;SDS011;53303;47.476;8.084;2023-07-29T05:05:59;6.97;;;2.60;;
66485;SDS011;53303;47.476;8.084;2023-07-29T05:08:30;5.35;;;2.38;;
66485;SDS011;53303;47.476;8.084;2023-07-29T05:10:55;9.10;;;2.55;;
66485;SDS011;53303;47.476;8.084;2023-07-29T05:13:23;6.68;;;2.58;;
66485;SDS011;53303;47.476;8.084;2023-07-29T05:15:49;7.63;;;2.50;;
66485;SDS011;53303;47.476;8.084;2023-07-29T05:18:17;7.88;;;2.42;;
66485;SDS011;53303;47.476;8.084;2023-07-29T05:20:42;8.80;;;2.33;;
66485;SDS011;53303;47.476;8.084;2023-07-29T05:23:08;6.95;;;2.50;;
66485;SDS011;53303;47.476;8.084;2023-07-29T05:25:34;6.68;;;2.50;;
66485;SDS011;53303;47.476;8.084;2023-07-29T05:28:02;6.78;;;2.45;;
66485;SDS011;53303;47.476;8.084;2023-07-29T05:30:31;7.68;;;2.80;;
66485;SDS011;53303;47.476;8.084;2023-07-29T05:32:58;7.00;;;2.40;;
66485;SDS011;53303;47.476;8.084;2023-07-29T05:35:26;7.13;;;2.30;;
66485;SDS011;53303;47.476;8.084;2023-07-29T05:37:54;7.57;;;2.05;;
66485;SDS011;53303;47.476;8.084;2023-07-29T05:40:20;12.10;;;2.95;;
66485;SDS011;53303;47.476;8.084;2023-07-29T05:42:45;6.47;;;2.55;;
66485;SDS011;53303;47.476;8.084;2023-07-29T05:45:13;6.05;;;2.42;;
66485;SDS011;53303;47.476;8.084;2023-07-29T05:47:41;6.63;;;2.40;;
66485;SDS011;53303;47.476;8.084;2023-07-29T05:50:11;5.82;;;2.10;;
66485;SDS011;53303;47.476;8.084;2023-07-29T05:52:38;7.38;;;2.70;;
66485;SDS011;53303;47.476;8.084;2023-07-29T05:55:06;6.82;;;2.50;;
66485;SDS011;53303;47.476;8.084;2023-07-29T05:57:32;6.05;;;2.47;;
66485;SDS011;53303;47.476;8.084;2023-07-29T05:59:57;7.25;;;2.15;;
66485;SDS011;53303;47.476;8.084;2023-07-29T06:02:23;9.50;;;2.28;;
66485;SDS011;53303;47.476;8.084;2023-07-29T06:04:48;5.75;;;2.45;;
66485;SDS011;53303;47.476;8.084;2023-07-29T06:07:16;9.68;;;2.50;;
66485;SDS011;53303;47.476;8.084;2023-07-29T06:09:41;5.40;;;2.30;;
66485;SDS011;53303;47.476;8.084;2023-07-29T06:12:07;5.93;;;2.30;;
66485;SDS011;53303;47.476;8.084;2023-07-29T06:14:38;5.20;;;2.30;;
66485;SDS011;53303;47.476;8.084;2023-07-29T06:17:03;4.90;;;1.95;;
66485;SDS011;53303;47.476;8.084;2023-07-29T06:19:29;8.30;;;2.55;;
66485;SDS011;53303;47.476;8.084;2023-07-29T06:21:55;6.75;;;2.22;;
66485;SDS011;53303;47.476;8.084;2023-07-29T06:24:20;5.72;;;1.95;;
66485;SDS011;53303;47.476;8.084;2023-07-29T06:26:48;7.53;;;2.60;;
66485;SDS011;53303;47.476;8.084;2023-07-29T06:29:16;5.93;;;2.35;;
66485;SDS011;53303;47.476;8.084;2023-07-29T06:31:46;6.10;;;2.47;;
66485;SDS011;53303;47.476;8.084;2023-07-29T06:34:17;10.20;;;2.90;;
66485;SDS011;53303;47.476;8.084;2023-07-29T06:36:42;10.05;;;2.72;;
66485;SDS011;53303;47.476;8.084;2023-07-29T06:39:11;7.43;;;3.10;;
66485;SDS011;53303;47.476;8.084;2023-07-29T06:41:37;13.07;;;3.15;;
66485;SDS011;53303;47.476;8.084;2023-07-29T06:44:02;8.20;;;2.50;;
66485;SDS011;53303;47.476;8.084;2023-07-29T06:46:31;10.10;;;2.85;;
66485;SDS011;53303;47.476;8.084;2023-07-29T06:48:56;10.80;;;3.08;;
66485;SDS011;53303;47.476;8.084;2023-07-29T06:51:24;6.93;;;2.60;;
66485;SDS011;53303;47.476;8.084;2023-07-29T06:53:52;8.00;;;2.70;;
66485;SDS011;53303;47.476;8.084;2023-07-29T06:56:20;11.13;;;2.75;;
66485;SDS011;53303;47.476;8.084;2023-07-29T06:58:45;6.85;;;2.90;;
66485;SDS011;53303;47.476;8.084;2023-07-29T07:01:10;7.28;;;2.25;;
66485;SDS011;53303;47.476;8.084;2023-07-29T07:03:40;7.80;;;3.28;;
66485;SDS011;53303;47.476;8.084;2023-07-29T07:06:06;7.70;;;2.85;;
66485;SDS011;53303;47.476;8.084;2023-07-29T07:08:34;8.18;;;2.60;;
66485;SDS011;53303;47.476;8.084;2023-07-29T07:10:59;8.73;;;2.85;;
66485;SDS011;53303;47.476;8.084;2023-07-29T07:13:27;10.20;;;2.90;;
66485;SDS011;53303;47.476;8.084;2023-07-29T07:15:56;7.70;;;2.72;;
66485;SDS011;53303;47.476;8.084;2023-07-29T07:18:24;6.47;;;2.20;;
66485;SDS011;53303;47.476;8.084;2023-07-29T07:20:49;6.28;;;2.78;;
66485;SDS011;53303;47.476;8.084;2023-07-29T07:23:15;6.43;;;2.70;;
66485;SDS011;53303;47.476;8.084;2023-07-29T07:25:44;8.07;;;2.70;;
66485;SDS011;53303;47.476;8.084;2023-07-29T07:28:14;7.18;;;2.42;;
66485;SDS011;53303;47.476;8.084;2023-07-29T07:30:44;9.48;;;3.08;;
66485;SDS011;53303;47.476;8.084;2023-07-29T07:33:12;7.53;;;2.97;;
66485;SDS011;53303;47.476;8.084;2023-07-29T07:35:38;7.20;;;3.17;;
66485;SDS011;53303;47.476;8.084;2023-07-29T07:38:05;6.30;;;3.00;;
66485;SDS011;53303;47.476;8.084;2023-07-29T07:40:36;8.07;;;2.80;;
66485;SDS011;53303;47.476;8.084;2023-07-29T07:43:03;7.72;;;2.88;;
66485;SDS011;53303;47.476;8.084;2023-07-29T07:45:36;7.82;;;2.72;;
66485;SDS011;53303;47.476;8.084;2023-07-29T07:48:01;6.82;;;2.45;;
66485;SDS011;53303;47.476;8.084;2023-07-29T07:50:29;8.45;;;2.95;;
66485;SDS011;53303;47.476;8.084;2023-07-29T07:52:55;6.60;;;2.70;;
66485;SDS011;53303;47.476;8.084;2023-07-29T07:55:22;9.60;;;2.25;;
66485;SDS011;53303;47.476;8.084;2023-07-29T07:57:50;8.02;;;2.65;;
66485;SDS011;53303;47.476;8.084;2023-07-29T08:00:16;7.13;;;3.00;;
66485;SDS011;53303;47.476;8.084;2023-07-29T08:02:47;7.18;;;2.80;;
66485;SDS011;53303;47.476;8.084;2023-07-29T08:05:18;6.10;;;2.60;;
66485;SDS011;53303;47.476;8.084;2023-07-29T08:07:44;6.90;;;2.40;;
66485;SDS011;53303;47.476;8.084;2023-07-29T08:10:14;4.97;;;2.05;;
66485;SDS011;53303;47.476;8.084;2023-07-29T08:12:39;7.82;;;2.38;;
66485;SDS011;53303;47.476;8.084;2023-07-29T08:15:05;6.07;;;2.55;;
66485;SDS011;53303;47.476;8.084;2023-07-29T08:17:33;5.50;;;2.15;;
66485;SDS011;53303;47.476;8.084;2023-07-29T08:19:58;5.20;;;2.03;;
66485;SDS011;53303;47.476;8.084;2023-07-29T08:22:23;6.13;;;2.20;;
66485;SDS011;53303;47.476;8.084;2023-07-29T08:24:49;7.43;;;2.70;;
66485;SDS011;53303;47.476;8.084;2023-07-29T08:27:14;5.82;;;2.20;;
66485;SDS011;53303;47.476;8.084;2023-07-29T08:29:40;7.93;;;2.53;;
66485;SDS011;53303;47.476;8.084;2023-07-29T08:32:07;7.80;;;2.22;;
66485;SDS011;53303;47.476;8.084;2023-07-29T08:34:33;6.43;;;2.08;;
66485;SDS011;53303;47.476;8.084;2023-07-29T08:36:58;8.23;;;2.45;;
66485;SDS011;53303;47.476;8.084;2023-07-29T08:39:27;7.53;;;2.70;;
66485;SDS011;53303;47.476;8.084;2023-07-29T08:44:33;6.55;;;2.50;;
66485;SDS011;53303;47.476;8.084;2023-07-29T08:47:01;8.13;;;2.10;;
66485;SDS011;53303;47.476;8.084;2023-07-29T08:49:27;5.95;;;2.40;;
66485;SDS011;53303;47.476;8.084;2023-07-29T08:51:59;6.97;;;2.65;;
66485;SDS011;53303;47.476;8.084;2023-07-29T08:54:26;5.78;;;2.30;;
66485;SDS011;53303;47.476;8.084;2023-07-29T08:56:54;5.75;;;2.63;;
66485;SDS011;53303;47.476;8.084;2023-07-29T08:59:22;8.18;;;2.50;;
66485;SDS011;53303;47.476;8.084;2023-07-29T09:01:51;4.85;;;2.42;;
66485;SDS011;53303;47.476;8.084;2023-07-29T09:04:20;6.97;;;2.70;;
66485;SDS011;53303;47.476;8.084;2023-07-29T09:06:46;5.25;;;2.33;;
66485;SDS011;53303;47.476;8.084;2023-07-29T09:09:15;5.43;;;2.20;;
66485;SDS011;53303;47.476;8.084;2023-07-29T09:11:43;4.90;;;2.10;;
66485;SDS011;53303;47.476;8.084;2023-07-29T09:14:09;5.03;;;2.30;;
66485;SDS011;53303;47.476;8.084;2023-07-29T09:16:43;6.88;;;2.40;;
66485;SDS011;53303;47.476;8.084;2023-07-29T09:19:09;6.57;;;2.00;;
66485;SDS011;53303;47.476;8.084;2023-07-29T09:21:37;6.10;;;2.20;;
66485;SDS011;53303;47.476;8.084;2023-07-29T09:24:06;5.53;;;2.17;;
66485;SDS011;53303;47.476;8.084;2023-07-29T09:26:35;5.50;;;1.92;;
66485;SDS011;53303;47.476;8.084;2023-07-29T09:29:03;4.80;;;1.85;;
66485;SDS011;53303;47.476;8.084;2023-07-29T09:31:28;4.07;;;1.63;;
66485;SDS011;53303;47.476;8.084;2023-07-29T09:34:00;4.95;;;1.85;;
66485;SDS011;53303;47.476;8.084;2023-07-29T09:36:31;5.78;;;2.08;;
66485;SDS011;53303;47.476;8.084;2023-07-29T09:38:59;5.63;;;2.10;;
66485;SDS011;53303;47.476;8.084;2023-07-29T09:41:25;5.15;;;2.17;;
66485;SDS011;53303;47.476;8.084;2023-07-29T09:43:55;5.10;;;2.30;;
66485;SDS011;53303;47.476;8.084;2023-07-29T09:46:31;4.72;;;1.90;;
66485;SDS011;53303;47.476;8.084;2023-07-29T09:48:58;4.55;;;2.10;;
66485;SDS011;53303;47.476;8.084;2023-07-29T09:51:24;5.15;;;2.08;;
66485;SDS011;53303;47.476;8.084;2023-07-29T09:53:50;5.40;;;2.00;;
66485;SDS011;53303;47.476;8.084;2023-07-29T09:56:17;4.38;;;2.03;;
66485;SDS011;53303;47.476;8.084;2023-07-29T09:58:45;4.57;;;1.85;;
66485;SDS011;53303;47.476;8.084;2023-07-29T10:01:12;6.20;;;2.28;;
66485;SDS011;53303;47.476;8.084;2023-07-29T10:03:44;5.43;;;2.42;;
66485;SDS011;53303;47.476;8.084;2023-07-29T10:06:12;5.68;;;2.10;;
66485;SDS011;53303;47.476;8.084;2023-07-29T10:08:39;4.43;;;2.05;;
66485;SDS011;53303;47.476;8.084;2023-07-29T10:11:10;5.40;;;2.00;;
66485;SDS011;53303;47.476;8.084;2023-07-29T10:13:39;5.65;;;2.03;;
66485;SDS011;53303;47.476;8.084;2023-07-29T10:16:04;6.25;;;2.20;;
66485;SDS011;53303;47.476;8.084;2023-07-29T10:18:32;6.15;;;2.15;;
66485;SDS011;53303;47.476;8.084;2023-07-29T10:20:59;5.38;;;2.35;;
66485;SDS011;53303;47.476;8.084;2023-07-29T10:23:36;5.13;;;1.90;;
66485;SDS011;53303;47.476;8.084;2023-07-29T10:26:09;4.60;;;2.10;;
66485;SDS011;53303;47.476;8.084;2023-07-29T10:28:41;5.35;;;2.33;;
66485;SDS011;53303;47.476;8.084;2023-07-29T10:31:12;4.72;;;2.10;;
66485;SDS011;53303;47.476;8.084;2023-07-29T10:33:40;4.85;;;1.83;;
66485;SDS011;53303;47.476;8.084;2023-07-29T10:36:06;5.07;;;1.98;;
66485;SDS011;53303;47.476;8.084;2023-07-29T10:38:32;5.15;;;2.00;;
66485;SDS011;53303;47.476;8.084;2023-07-29T10:40:58;9.30;;;2.60;;
66485;SDS011;53303;47.476;8.084;2023-07-29T10:43:33;8.27;;;3.05;;
66485;SDS011;53303;47.476;8.084;2023-07-29T10:46:22;5.65;;;2.00;;
66485;SDS011;53303;47.476;8.084;2023-07-29T10:54:10;8.50;;;2.42;;
66485;SDS011;53303;47.476;8.084;2023-07-29T10:56:36;7.97;;;2.60;;
66485;SDS011;53303;47.476;8.084;2023-07-29T11:01:41;8.55;;;2.50;;
66485;SDS011;53303;47.476;8.084;2023-07-29T11:09:42;7.90;;;2.88;;
66485;SDS011;53303;47.476;8.084;2023-07-29T11:20:18;5.43;;;2.13;;
66485;SDS011;53303;47.476;8.084;2023-07-29T11:22:45;6.18;;;2.38;;
66485;SDS011;53303;47.476;8.084;2023-07-29T11:25:13;6.63;;;2.13;;
66485;SDS011;53303;47.476;8.084;2023-07-29T11:27:40;5.65;;;2.20;;
66485;SDS011;53303;47.476;8.084;2023-07-29T11:30:11;5.10;;;1.90;;
66485;SDS011;53303;47.476;8.084;2023-07-29T11:32:38;5.85;;;2.35;;
66485;SDS011;53303;47.476;8.084;2023-07-29T11:35:05;5.68;;;2.10;;
66485;SDS011;53303;47.476;8.084;2023-07-29T11:37:33;7.70;;;2.38;;
66485;SDS011;53303;47.476;8.084;2023-07-29T11:40:00;7.07;;;2.30;;
66485;SDS011;53303;47.476;8.084;2023-07-29T11:42:28;5.75;;;2.15;;
66485;SDS011;53303;47.476;8.084;2023-07-29T11:45:02;5.50;;;1.92;;
66485;SDS011;53303;47.476;8.084;2023-07-29T11:47:29;6.85;;;2.20;;
66485;SDS011;53303;47.476;8.084;2023-07-29T11:49:57;5.70;;;2.08;;
66485;SDS011;53303;47.476;8.084;2023-07-29T11:52:25;4.80;;;2.05;;
66485;SDS011;53303;47.476;8.084;2023-07-29T11:54:52;5.90;;;2.10;;
66485;SDS011;53303;47.476;8.084;2023-07-29T11:57:18;5.75;;;2.10;;
66485;SDS011;53303;47.476;8.084;2023-07-29T11:59:43;5.03;;;2.10;;
66485;SDS011;53303;47.476;8.084;2023-07-29T12:02:11;5.25;;;2.10;;
66485;SDS011;53303;47.476;8.084;2023-07-29T12:04:39;6.22;;;2.80;;
66485;SDS011;53303;47.476;8.084;2023-07-29T12:07:06;5.07;;;1.90;;
66485;SDS011;53303;47.476;8.084;2023-07-29T12:09:37;5.88;;;2.20;;
66485;SDS011;53303;47.476;8.084;2023-07-29T12:12:05;6.05;;;2.05;;
66485;SDS011;53303;47.476;8.084;2023-07-29T12:14:32;4.68;;;2.13;;
66485;SDS011;53303;47.476;8.084;2023-07-29T12:17:01;6.75;;;2.00;;
66485;SDS011;53303;47.476;8.084;2023-07-29T12:19:36;5.95;;;2.20;;
66485;SDS011;53303;47.476;8.084;2023-07-29T12:22:06;5.32;;;2.15;;
66485;SDS011;53303;47.476;8.084;2023-07-29T12:24:33;6.38;;;2.60;;
66485;SDS011;53303;47.476;8.084;2023-07-29T12:27:02;6.10;;;1.98;;
66485;SDS011;53303;47.476;8.084;2023-07-29T12:29:27;5.00;;;2.00;;
66485;SDS011;53303;47.476;8.084;2023-07-29T12:32:00;7.50;;;2.05;;
66485;SDS011;53303;47.476;8.084;2023-07-29T12:34:28;5.28;;;2.00;;
66485;SDS011;53303;47.476;8.084;2023-07-29T12:36:57;6.53;;;2.05;;
66485;SDS011;53303;47.476;8.084;2023-07-29T12:39:32;6.28;;;2.05;;
66485;SDS011;53303;47.476;8.084;2023-07-29T12:42:00;4.43;;;2.10;;
66485;SDS011;53303;47.476;8.084;2023-07-29T12:44:32;6.78;;;1.92;;
66485;SDS011;53303;47.476;8.084;2023-07-29T12:47:02;8.45;;;2.15;;
66485;SDS011;53303;47.476;8.084;2023-07-29T12:49:30;5.43;;;1.83;;
66485;SDS011;53303;47.476;8.084;2023-07-29T12:51:58;5.85;;;2.20;;
66485;SDS011;53303;47.476;8.084;2023-07-29T12:54:26;5.25;;;2.40;;
66485;SDS011;53303;47.476;8.084;2023-07-29T12:56:51;5.88;;;2.15;;
66485;SDS011;53303;47.476;8.084;2023-07-29T12:59:17;7.72;;;1.77;;
66485;SDS011;53303;47.476;8.084;2023-07-29T13:01:45;6.00;;;2.15;;
66485;SDS011;53303;47.476;8.084;2023-07-29T13:04:13;7.03;;;2.33;;
66485;SDS011;53303;47.476;8.084;2023-07-29T13:06:41;6.32;;;2.30;;
66485;SDS011;53303;47.476;8.084;2023-07-29T13:09:09;4.85;;;1.88;;
66485;SDS011;53303;47.476;8.084;2023-07-29T13:11:37;5.07;;;1.92;;
66485;SDS011;53303;47.476;8.084;2023-07-29T13:14:05;5.75;;;2.13;;
66485;SDS011;53303;47.476;8.084;2023-07-29T13:16:32;5.63;;;2.00;;
66485;SDS011;53303;47.476;8.084;2023-07-29T13:18:57;6.60;;;2.20;;
66485;SDS011;53303;47.476;8.084;2023-07-29T13:21:25;5.57;;;2.30;;
66485;SDS011;53303;47.476;8.084;2023-07-29T13:23:53;6.65;;;2.00;;
66485;SDS011;53303;47.476;8.084;2023-07-29T13:26:18;6.60;;;2.42;;
66485;SDS011;53303;47.476;8.084;2023-07-29T13:28:44;6.30;;;1.90;;
66485;SDS011;53303;47.476;8.084;2023-07-29T13:31:09;6.25;;;2.08;;
66485;SDS011;53303;47.476;8.084;2023-07-29T13:33:37;5.97;;;2.05;;
66485;SDS011;53303;47.476;8.084;2023-07-29T13:36:05;6.05;;;2.40;;
66485;SDS011;53303;47.476;8.084;2023-07-29T13:38:31;6.90;;;2.13;;
66485;SDS011;53303;47.476;8.084;2023-07-29T13:40:58;6.75;;;2.20;;
66485;SDS011;53303;47.476;8.084;2023-07-29T13:43:29;8.50;;;2.25;;
66485;SDS011;53303;47.476;8.084;2023-07-29T13:45:55;6.57;;;2.35;;
66485;SDS011;53303;47.476;8.084;2023-07-29T13:48:20;8.18;;;2.38;;
66485;SDS011;53303;47.476;8.084;2023-07-29T13:50:46;5.53;;;1.90;;
66485;SDS011;53303;47.476;8.084;2023-07-29T13:53:11;5.82;;;2.00;;
66485;SDS011;53303;47.476;8.084;2023-07-29T13:55:37;6.20;;;1.83;;
66485;SDS011;53303;47.476;8.084;2023-07-29T13:58:02;5.65;;;2.20;;
66485;SDS011;53303;47.476;8.084;2023-07-29T14:00:29;7.68;;;2.35;;
66485;SDS011;53303;47.476;8.084;2023-07-29T14:02:55;6.78;;;2.00;;
66485;SDS011;53303;47.476;8.084;2023-07-29T14:05:20;6.88;;;2.20;;
66485;SDS011;53303;47.476;8.084;2023-07-29T14:07:48;6.70;;;2.28;;
66485;SDS011;53303;47.476;8.084;2023-07-29T14:10:13;8.90;;;2.25;;
66485;SDS011;53303;47.476;8.084;2023-07-29T14:12:42;6.40;;;2.10;;
66485;SDS011;53303;47.476;8.084;2023-07-29T14:15:07;5.07;;;1.90;;
66485;SDS011;53303;47.476;8.084;2023-07-29T14:17:35;6.95;;;2.20;;
66485;SDS011;53303;47.476;8.084;2023-07-29T14:20:03;5.47;;;2.13;;
66485;SDS011;53303;47.476;8.084;2023-07-29T14:22:30;6.00;;;2.00;;
66485;SDS011;53303;47.476;8.084;2023-07-29T14:24:58;9.18;;;2.72;;
66485;SDS011;53303;47.476;8.084;2023-07-29T14:27:26;8.90;;;2.78;;
66485;SDS011;53303;47.476;8.084;2023-07-29T14:29:51;7.72;;;2.60;;
66485;SDS011;53303;47.476;8.084;2023-07-29T14:32:16;7.03;;;2.30;;
66485;SDS011;53303;47.476;8.084;2023-07-29T14:34:45;7.00;;;2.28;;
66485;SDS011;53303;47.476;8.084;2023-07-29T14:37:16;5.22;;;1.98;;
66485;SDS011;53303;47.476;8.084;2023-07-29T14:39:43;5.07;;;2.50;;
66485;SDS011;53303;47.476;8.084;2023-07-29T14:42:09;14.02;;;2.67;;
66485;SDS011;53303;47.476;8.084;2023-07-29T14:44:34;8.50;;;2.38;;
66485;SDS011;53303;47.476;8.084;2023-07-29T14:47:02;7.20;;;2.20;;
66485;SDS011;53303;47.476;8.084;2023-07-29T14:49:32;8.10;;;2.40;;
66485;SDS011;53303;47.476;8.084;2023-07-29T14:51:58;7.97;;;2.30;;
66485;SDS011;53303;47.476;8.084;2023-07-29T14:54:23;7.47;;;2.65;;
66485;SDS011;53303;47.476;8.084;2023-07-29T14:56:48;7.35;;;3.15;;
66485;SDS011;53303;47.476;8.084;2023-07-29T14:59:18;8.20;;;2.17;;
66485;SDS011;53303;47.476;8.084;2023-07-29T15:01:44;6.78;;;2.05;;
66485;SDS011;53303;47.476;8.084;2023-07-29T15:04:11;5.35;;;2.00;;
66485;SDS011;53303;47.476;8.084;2023-07-29T15:06:37;7.57;;;2.40;;
66485;SDS011;53303;47.476;8.084;2023-07-29T15:09:03;10.05;;;2.10;;
66485;SDS011;53303;47.476;8.084;2023-07-29T15:11:32;9.68;;;2.80;;
66485;SDS011;53303;47.476;8.084;2023-07-29T15:13:58;5.63;;;2.25;;
66485;SDS011;53303;47.476;8.084;2023-07-29T15:16:29;6.05;;;2.33;;
66485;SDS011;53303;47.476;8.084;2023-07-29T15:18:59;6.32;;;2.25;;
66485;SDS011;53303;47.476;8.084;2023-07-29T15:21:24;6.13;;;2.10;;
66485;SDS011;53303;47.476;8.084;2023-07-29T15:23:52;7.47;;;2.30;;